Time;durP1;ratioP1;P1;durP2;ratioP2;P2;SDS_P1;SDS_P2;PMS_P1;PMS_P2;Temp;Humidity;BMP_temperature;BMP_pressure;BME280_temperature;BME280_humidity;BME280_pressure;Samples;Min_cycle;Max_cycle;Signal;HPM_P1;HPM_P2
2023/06/12 00:02:18;;;;;;;11.45;10.35;;;24.90;70.60;;;;;;4670866;55;21074;-37
2023/06/12 00:07:21;;;;;;;11.68;10.57;;;24.90;70.50;;;;;;4615155;60;22587;-38
2023/06/12 00:12:22;;;;;;;11.88;10.48;;;24.90;70.50;;;;;;4624119;55;21542;-38
2023/06/12 00:17:23;;;;;;;11.82;10.63;;;24.90;70.50;;;;;;4659222;55;21022;-36
2023/06/12 00:22:24;;;;;;;12.30;11.15;;;24.90;70.50;;;;;;4720409;55;21017;-38
2023/06/12 00:27:24;;;;;;;11.20;10.00;;;24.90;71.20;;;;;;4662354;55;21125;-38
2023/06/12 00:32:25;;;;;;;10.82;9.73;;;24.90;70.60;;;;;;4630729;55;21029;-37
2023/06/12 00:37:27;;;;;;;10.95;9.85;;;24.90;70.60;;;;;;4713340;56;21925;-38
2023/06/12 00:42:35;;;;;;;11.18;10.02;;;24.90;70.60;;;;;;4615096;60;21571;-35
2023/06/12 00:47:38;;;;;;;11.30;10.20;;;24.90;70.60;;;;;;4614921;60;21045;-33
2023/06/12 00:52:45;;;;;;;12.32;11.02;;;24.90;70.60;;;;;;4625429;55;21134;-38
2023/06/12 00:57:47;;;;;;;11.02;9.82;;;24.90;70.70;;;;;;4736484;56;21144;-35
2023/06/12 01:03:03;;;;;;;11.30;10.20;;;24.90;70.60;;;;;;4615472;60;21024;-36
2023/06/12 01:08:28;;;;;;;11.43;10.27;;;24.90;70.60;;;;;;4863671;56;21608;-35
2023/06/12 01:13:30;;;;;;;11.02;9.90;;;24.90;70.60;;;;;;4758782;56;21009;-36
2023/06/12 01:18:33;;;;;;;10.40;9.30;;;24.90;70.70;;;;;;4769960;56;21050;-35
2023/06/12 01:24:08;;;;;;;10.00;9.00;;;24.90;70.60;;;;;;4682232;56;21085;-37
2023/06/12 01:29:46;;;;;;;11.15;10.05;;;24.90;70.60;;;;;;4652950;56;21511;-38
2023/06/12 01:34:54;;;;;;;10.02;9.02;;;24.90;70.70;;;;;;4707188;56;21544;-38
2023/06/12 01:40:00;;;;;;;11.18;10.07;;;24.90;70.70;;;;;;4695776;56;21499;-36
2023/06/12 01:45:01;;;;;;;9.32;8.43;;;24.90;70.70;;;;;;4755238;56;21053;-36
2023/06/12 01:50:04;;;;;;;10.00;9.00;;;24.90;70.70;;;;;;4699916;56;21551;-36
2023/06/12 01:55:06;;;;;;;9.63;8.52;;;24.90;70.70;;;;;;4738124;56;21089;-36
2023/06/12 02:00:09;;;;;;;9.70;8.80;;;24.90;70.70;;;;;;4672717;56;21491;-38
2023/06/12 02:05:10;;;;;;;10.50;9.40;;;24.90;70.70;;;;;;4783763;56;21511;-38
2023/06/12 02:10:11;;;;;;;10.70;9.65;;;24.90;70.70;;;;;;4659875;56;21041;-38
2023/06/12 02:15:12;;;;;;;10.20;9.20;;;24.90;70.70;;;;;;4618859;56;21029;-33
2023/06/12 02:20:13;;;;;;;10.23;9.20;;;24.90;70.70;;;;;;4669246;56;21448;-35
2023/06/12 02:25:14;;;;;;;9.80;8.90;;;24.90;70.70;;;;;;4834692;56;21020;-36
2023/06/12 02:30:15;;;;;;;9.80;8.80;;;24.90;70.70;;;;;;4668962;56;21145;-37
2023/06/12 02:35:16;;;;;;;11.32;9.25;;;24.90;70.70;;;;;;4616210;56;21029;-32
2023/06/12 02:40:16;;;;;;;9.23;8.32;;;24.90;70.70;;;;;;4734076;56;21511;-35
2023/06/12 02:45:17;;;;;;;9.27;8.30;;;24.90;70.70;;;;;;4735137;56;21084;-40
2023/06/12 02:50:18;;;;;;;9.50;8.60;;;24.90;70.70;;;;;;4762982;56;21053;-37
2023/06/12 02:55:19;;;;;;;9.25;8.35;;;24.90;70.70;;;;;;4623891;56;21061;-36
2023/06/12 03:00:20;;;;;;;9.38;8.48;;;24.90;70.70;;;;;;4714474;56;21516;-38
2023/06/12 03:05:25;;;;;;;9.68;8.68;;;24.90;70.60;;;;;;4667824;56;21041;-37
2023/06/12 03:10:26;;;;;;;9.02;8.13;;;24.90;70.70;;;;;;4614757;60;21487;-34
2023/06/12 03:15:27;;;;;;;9.80;8.77;;;24.80;70.70;;;;;;4615514;56;21092;-43
2023/06/12 03:20:28;;;;;;;9.75;8.40;;;24.90;70.60;;;;;;4787341;56;21092;-35
2023/06/12 03:25:29;;;;;;;9.15;8.32;;;24.90;70.60;;;;;;4640496;56;21099;-37
2023/06/12 03:30:30;;;;;;;9.43;8.52;;;24.90;70.60;;;;;;4648600;56;21167;-36
2023/06/12 03:35:30;;;;;;;8.82;7.93;;;24.80;70.60;;;;;;4615684;60;21049;-35
2023/06/12 03:40:31;;;;;;;8.65;7.85;;;24.80;70.60;;;;;;4646171;56;21087;-37
2023/06/12 03:45:32;;;;;;;8.93;7.80;;;24.80;70.60;;;;;;4691902;56;21531;-37
2023/06/12 03:50:33;;;;;;;8.52;7.72;;;24.90;70.70;;;;;;4858619;56;21029;-35
2023/06/12 03:55:35;;;;;;;8.02;7.30;;;24.80;70.60;;;;;;4706522;56;21113;-36
2023/06/12 04:00:36;;;;;;;8.65;7.85;;;24.90;70.00;;;;;;4657126;56;21606;-35
2023/06/12 04:05:37;;;;;;;8.40;7.60;;;24.80;70.50;;;;;;4619601;56;21025;-35
2023/06/12 04:10:38;;;;;;;8.57;7.68;;;24.80;70.50;;;;;;4641765;56;21488;-36
2023/06/12 04:15:39;;;;;;;8.43;7.62;;;24.80;70.50;;;;;;4714857;56;21484;-36
2023/06/12 04:20:41;;;;;;;8.13;7.32;;;24.80;70.50;;;;;;4657692;56;21021;-35
2023/06/12 04:25:42;;;;;;;8.25;7.45;;;24.80;70.50;;;;;;4741056;56;21565;-34
2023/06/12 04:30:45;;;;;;;8.20;7.40;;;24.80;70.50;;;;;;4615201;56;21503;-34
2023/06/12 04:35:46;;;;;;;8.68;6.90;;;24.80;70.40;;;;;;4759624;56;21042;-37
2023/06/12 04:40:47;;;;;;;7.90;7.20;;;24.80;70.40;;;;;;4640010;56;21041;-35
2023/06/12 04:45:48;;;;;;;8.43;7.45;;;24.80;70.40;;;;;;4646390;56;21046;-36
2023/06/12 04:50:50;;;;;;;7.82;7.12;;;24.80;70.30;;;;;;4662624;56;21060;-39
2023/06/12 04:55:56;;;;;;;7.90;7.10;;;24.80;70.30;;;;;;4660722;56;21500;-36
2023/06/12 05:01:00;;;;;;;8.20;7.40;;;24.80;70.20;;;;;;4735686;56;21594;-36
2023/06/12 05:06:01;;;;;;;8.00;7.30;;;24.80;70.20;;;;;;4774621;56;21017;-40
2023/06/12 05:11:03;;;;;;;7.60;6.90;;;24.80;70.20;;;;;;4697653;56;21244;-35
2023/06/12 05:16:04;;;;;;;7.68;6.97;;;24.80;70.10;;;;;;4722739;56;21519;-41
2023/06/12 05:21:06;;;;;;;7.40;6.80;;;24.80;70.00;;;;;;4692495;56;21555;-39
2023/06/12 05:26:07;;;;;;;7.68;6.87;;;24.80;70.00;;;;;;4736092;56;21634;-39
2023/06/12 05:31:08;;;;;;;6.97;6.32;;;24.80;70.00;;;;;;4677804;56;21104;-37
2023/06/12 05:36:09;;;;;;;7.80;7.10;;;24.80;69.90;;;;;;4623950;56;21555;-34
2023/06/12 05:41:10;;;;;;;7.65;6.95;;;24.80;69.90;;;;;;4704402;56;21076;-35
2023/06/12 05:46:11;;;;;;;7.82;7.07;;;24.80;69.80;;;;;;4634377;56;21121;-35
2023/06/12 05:51:12;;;;;;;7.68;6.87;;;24.80;69.80;;;;;;4673944;56;21022;-37
2023/06/12 05:56:13;;;;;;;7.15;6.50;;;24.80;69.70;;;;;;4662083;56;21037;-36
2023/06/12 06:01:16;;;;;;;7.97;7.18;;;24.70;69.70;;;;;;4696436;56;21029;-34
2023/06/12 06:06:18;;;;;;;7.18;6.47;;;24.80;69.60;;;;;;4692678;56;21634;-36
2023/06/12 06:11:20;;;;;;;7.05;6.45;;;24.80;69.60;;;;;;4730951;56;21085;-31
2023/06/12 06:16:21;;;;;;;8.35;7.12;;;24.80;69.50;;;;;;4647407;56;21536;-34
2023/06/12 06:21:22;;;;;;;8.32;7.35;;;24.80;69.50;;;;;;4686559;56;21413;-37
2023/06/12 06:26:23;;;;;;;8.10;7.30;;;24.80;69.50;;;;;;4619074;56;21560;-37
2023/06/12 06:31:25;;;;;;;7.87;7.07;;;24.80;69.50;;;;;;4615561;60;21013;-36
2023/06/12 06:36:26;;;;;;;7.82;7.03;;;24.80;69.30;;;;;;4638018;56;21523;-36
2023/06/12 06:41:27;;;;;;;7.20;6.50;;;24.70;69.20;;;;;;4664092;56;21602;-37
2023/06/12 06:46:28;;;;;;;7.70;7.00;;;24.80;69.20;;;;;;4643833;56;21117;-36
2023/06/12 06:51:32;;;;;;;8.52;7.53;;;24.80;69.20;;;;;;4661681;56;21097;-36
2023/06/12 06:56:33;;;;;;;8.45;7.65;;;24.70;69.10;;;;;;4638371;56;21041;-37
2023/06/12 07:01:34;;;;;;;8.45;7.65;;;24.70;69.10;;;;;;4688932;56;21116;-37
2023/06/12 07:06:35;;;;;;;8.73;7.82;;;24.80;69.10;;;;;;4628058;56;21574;-35
2023/06/12 07:11:36;;;;;;;7.93;7.22;;;24.80;69.10;;;;;;4672162;56;21089;-37
2023/06/12 07:16:37;;;;;;;9.05;8.15;;;24.80;69.00;;;;;;4703398;56;20989;-36
2023/06/12 07:21:39;;;;;;;9.50;8.02;;;24.70;68.90;;;;;;4717447;56;21037;-35
2023/06/12 07:26:40;;;;;;;8.57;7.78;;;24.70;68.90;;;;;;4657370;56;21586;-36
2023/06/12 07:31:41;;;;;;;9.73;7.90;;;24.80;69.00;;;;;;4718513;56;21343;-35
2023/06/12 07:36:41;;;;;;;8.60;7.80;;;24.80;68.90;;;;;;4632641;56;21483;-36
2023/06/12 07:41:46;;;;;;;10.40;8.38;;;24.80;68.90;;;;;;4636680;56;21021;-36
2023/06/12 07:46:46;;;;;;;9.18;7.72;;;24.80;68.90;;;;;;4645505;56;21077;-35
2023/06/12 07:51:47;;;;;;;10.40;8.40;;;24.80;68.90;;;;;;4615526;60;22266;-36
2023/06/12 07:56:50;;;;;;;10.73;8.77;;;24.80;68.90;;;;;;4702340;56;21029;-35
2023/06/12 08:01:51;;;;;;;11.80;9.52;;;24.80;68.80;;;;;;4615824;56;21515;-31
2023/06/12 08:06:54;;;;;;;9.35;8.35;;;24.80;68.80;;;;;;4708578;56;21045;-34
2023/06/12 08:11:56;;;;;;;11.82;10.07;;;24.80;68.80;;;;;;4638469;56;21069;-36
2023/06/12 08:16:58;;;;;;;10.52;9.27;;;24.70;68.70;;;;;;4615757;59;21519;-40
2023/06/12 08:22:00;;;;;;;11.10;9.60;;;24.80;68.80;;;;;;4779045;56;21476;-35
2023/06/12 08:27:01;;;;;;;12.65;9.45;;;24.80;68.80;;;;;;4615416;60;21514;-39
2023/06/12 08:32:02;;;;;;;11.20;9.93;;;24.80;68.70;;;;;;4697695;56;21125;-36
2023/06/12 08:37:03;;;;;;;11.93;9.70;;;24.80;68.70;;;;;;4674185;56;21005;-37
2023/06/12 08:42:10;;;;;;;11.65;9.63;;;24.80;68.70;;;;;;4630116;56;21033;-36
2023/06/12 08:47:13;;;;;;;11.93;10.40;;;24.80;68.80;;;;;;4638256;56;21089;-38
2023/06/12 08:52:14;;;;;;;11.52;10.32;;;24.80;68.70;;;;;;4655088;56;22021;-36
2023/06/12 08:57:16;;;;;;;13.20;11.25;;;24.80;68.70;;;;;;4634725;56;21505;-37
2023/06/12 09:02:22;;;;;;;13.57;12.07;;;24.80;68.80;;;;;;4615623;59;21538;-39
2023/06/12 09:07:25;;;;;;;14.15;11.68;;;24.80;68.70;;;;;;4642123;56;21543;-36
2023/06/12 09:12:30;;;;;;;14.07;11.00;;;24.80;68.90;;;;;;4633032;56;21073;-37
2023/06/12 09:17:33;;;;;;;12.88;11.48;;;24.90;68.90;;;;;;4640897;56;21124;-36
2023/06/12 09:22:37;;;;;;;15.88;12.95;;;24.90;68.90;;;;;;4638281;55;21037;-38
2023/06/12 09:27:42;;;;;;;16.08;13.85;;;24.90;68.60;;;;;;4631332;56;21124;-32
2023/06/12 09:32:46;;;;;;;14.65;12.82;;;25.00;68.70;;;;;;4624450;56;21017;-37
2023/06/12 09:37:50;;;;;;;15.85;13.27;;;25.00;68.80;;;;;;4650106;56;21097;-36
2023/06/12 09:42:50;;;;;;;15.02;13.10;;;24.90;68.70;;;;;;4613822;59;21583;-34
2023/06/12 09:47:52;;;;;;;15.27;13.60;;;25.00;68.80;;;;;;4613988;60;21042;-38
2023/06/12 09:52:58;;;;;;;15.40;13.62;;;24.90;68.80;;;;;;4683746;55;21040;-38
2023/06/12 09:57:59;;;;;;;15.67;13.60;;;24.90;68.70;;;;;;4620978;56;21005;-36
2023/06/12 10:03:09;;;;;;;15.05;13.45;;;25.00;68.70;;;;;;4755625;56;21599;-38
2023/06/12 10:08:10;;;;;;;16.95;14.43;;;24.90;68.70;;;;;;4613649;60;22192;-38
2023/06/12 10:13:12;;;;;;;16.60;14.50;;;25.00;68.70;;;;;;4629998;55;21025;-33
2023/06/12 10:18:16;;;;;;;17.98;15.57;;;25.00;68.70;;;;;;4614231;56;21582;-32
2023/06/12 10:23:17;;;;;;;17.25;14.40;;;25.00;68.70;;;;;;4710194;56;21061;-33
2023/06/12 10:28:18;;;;;;;17.65;15.77;;;25.00;68.50;;;;;;4638537;56;21069;-37
2023/06/12 10:33:20;;;;;;;19.90;16.40;;;25.10;68.50;;;;;;4618254;55;21535;-38
2023/06/12 10:38:21;;;;;;;18.70;16.58;;;25.10;68.60;;;;;;4613899;58;21073;-37
2023/06/12 10:43:26;;;;;;;19.02;16.70;;;25.10;68.50;;;;;;4617106;56;21061;-31
2023/06/12 10:48:28;;;;;;;23.33;17.02;;;25.20;68.60;;;;;;4612555;60;21112;-36
2023/06/12 10:53:29;;;;;;;20.08;17.15;;;25.20;68.80;;;;;;4616195;56;21648;-37
2023/06/12 10:58:41;;;;;;;24.77;17.92;;;25.20;68.80;;;;;;4617751;56;21025;-38
2023/06/12 11:03:43;;;;;;;19.60;17.05;;;25.20;68.80;;;;;;4613766;60;21136;-36
2023/06/12 11:08:48;;;;;;;22.42;18.33;;;25.20;69.00;;;;;;4637144;56;21662;-37
2023/06/12 11:13:48;;;;;;;25.85;19.23;;;25.30;69.10;;;;;;4616099;56;21554;-34
2023/06/12 11:19:08;;;;;;;25.45;20.58;;;25.20;69.10;;;;;;4686636;55;21129;-36
2023/06/12 11:24:13;;;;;;;24.45;19.17;;;25.10;69.30;;;;;;4677376;56;21531;-35
2023/06/12 11:29:18;;;;;;;24.70;20.48;;;25.10;69.50;;;;;;4626882;56;21077;-37
2023/06/12 11:34:19;;;;;;;27.45;22.33;;;25.10;69.60;;;;;;4615501;60;21052;-38
2023/06/12 11:39:20;;;;;;;25.27;21.92;;;25.00;69.60;;;;;;4710454;55;21094;-36
2023/06/12 11:44:21;;;;;;;29.55;23.85;;;25.00;69.80;;;;;;4665767;55;21041;-38
2023/06/12 11:49:22;;;;;;;27.00;21.95;;;25.00;69.60;;;;;;4667026;55;21021;-39
2023/06/12 11:54:23;;;;;;;26.37;22.45;;;25.00;69.60;;;;;;4679724;56;21481;-40
2023/06/12 11:59:34;;;;;;;26.10;22.00;;;25.00;69.60;;;;;;4622785;56;21013;-39
2023/06/12 12:04:37;;;;;;;28.33;22.83;;;25.00;69.70;;;;;;4626737;56;21152;-37
2023/06/12 12:09:38;;;;;;;25.10;21.75;;;24.90;69.70;;;;;;4614580;57;21484;-39
2023/06/12 12:14:48;;;;;;;28.17;23.02;;;25.00;69.60;;;;;;4720777;55;21095;-39
2023/06/12 12:20:00;;;;;;;27.73;22.35;;;24.90;69.60;;;;;;4624060;55;21009;-36
2023/06/12 12:25:03;;;;;;;26.35;23.38;;;24.90;69.60;;;;;;4630694;56;21080;-38
2023/06/12 12:30:07;;;;;;;28.60;23.58;;;24.90;69.60;;;;;;4638625;56;21017;-37
2023/06/12 12:35:09;;;;;;;28.23;24.08;;;24.90;69.50;;;;;;4615146;60;21586;-37
2023/06/12 12:40:12;;;;;;;27.83;23.60;;;24.90;69.60;;;;;;4634206;56;21488;-36
2023/06/12 12:45:15;;;;;;;27.98;24.08;;;24.90;70.10;;;;;;4722037;56;21578;-39
2023/06/12 12:50:18;;;;;;;26.95;24.08;;;24.90;69.60;;;;;;4767122;56;21033;-39
2023/06/12 12:55:19;;;;;;;28.67;24.52;;;24.90;69.50;;;;;;4637053;56;21132;-37
2023/06/12 13:00:20;;;;;;;28.58;24.10;;;24.90;69.60;;;;;;4652521;55;21033;-37
2023/06/12 13:05:21;;;;;;;27.92;23.48;;;24.90;69.50;;;;;;4697277;55;21547;-36
2023/06/12 13:10:22;;;;;;;27.83;24.48;;;24.90;69.50;;;;;;4634466;55;21112;-37
2023/06/12 13:15:23;;;;;;;28.15;24.60;;;24.90;69.50;;;;;;4614995;60;21077;-35
2023/06/12 13:20:24;;;;;;;27.15;23.55;;;24.90;69.50;;;;;;4778916;55;21092;-37
2023/06/12 13:25:24;;;;;;;28.20;24.12;;;24.90;69.60;;;;;;4650791;55;21700;-36
2023/06/12 13:30:25;;;;;;;27.73;24.63;;;24.90;69.60;;;;;;4798005;55;21112;-35
2023/06/12 13:35:26;;;;;;;26.42;23.52;;;24.90;69.50;;;;;;4615590;59;21025;-35
2023/06/12 13:40:27;;;;;;;27.42;23.60;;;24.90;69.50;;;;;;4615554;60;21132;-38
2023/06/12 13:45:31;;;;;;;29.48;25.62;;;24.90;69.90;;;;;;4614602;59;21094;-35
2023/06/12 13:50:33;;;;;;;27.08;23.45;;;24.90;69.50;;;;;;4655133;56;21527;-36
2023/06/12 13:55:33;;;;;;;26.27;23.38;;;24.90;69.50;;;;;;4615431;60;21121;-39
2023/06/12 14:00:35;;;;;;;28.83;24.65;;;24.90;69.50;;;;;;4615428;60;21064;-36
2023/06/12 14:05:36;;;;;;;27.30;23.25;;;24.90;69.50;;;;;;4647619;56;21076;-34
2023/06/12 14:10:38;;;;;;;28.35;25.30;;;24.90;69.50;;;;;;4704632;55;21542;-40
2023/06/12 14:15:40;;;;;;;31.23;24.55;;;24.90;69.50;;;;;;4671864;56;21483;-36
2023/06/12 14:20:42;;;;;;;28.65;24.70;;;24.90;69.50;;;;;;4650418;55;21567;-37
2023/06/12 14:25:43;;;;;;;29.35;23.83;;;24.90;69.50;;;;;;4670090;56;21069;-37
2023/06/12 14:30:44;;;;;;;29.67;24.60;;;24.90;69.50;;;;;;4738352;55;21484;-37
2023/06/12 14:35:46;;;;;;;27.95;23.73;;;24.90;69.50;;;;;;4615571;60;21029;-34
2023/06/12 14:40:47;;;;;;;26.67;23.27;;;24.90;69.50;;;;;;4615321;60;21587;-36
2023/06/12 14:45:47;;;;;;;28.75;24.30;;;24.90;69.50;;;;;;4632679;56;21037;-38
2023/06/12 14:50:48;;;;;;;27.62;23.75;;;24.90;69.50;;;;;;4664234;55;21128;-40
2023/06/12 14:55:49;;;;;;;25.23;22.52;;;24.90;69.50;;;;;;4731470;55;21743;-37
2023/06/12 15:00:51;;;;;;;27.45;23.55;;;24.90;70.10;;;;;;4810433;55;21092;-36
2023/06/12 15:05:52;;;;;;;25.25;22.58;;;24.90;69.50;;;;;;4622205;55;21543;-36
2023/06/12 15:10:53;;;;;;;28.05;24.23;;;24.90;69.50;;;;;;4614418;59;21113;-34
2023/06/12 15:15:53;;;;;;;28.12;24.10;;;24.80;69.50;;;;;;4614554;60;21587;-36
2023/06/12 15:20:54;;;;;;;27.08;24.05;;;24.90;69.60;;;;;;4683126;55;21401;-39
2023/06/12 15:25:55;;;;;;;26.98;24.08;;;24.90;69.50;;;;;;4645453;55;21104;-36
2023/06/12 15:30:56;;;;;;;28.08;23.98;;;24.90;69.50;;;;;;4614390;60;21029;-36
2023/06/12 15:35:57;;;;;;;27.50;24.52;;;24.90;69.50;;;;;;4660543;55;21630;-36
2023/06/12 15:40:58;;;;;;;29.15;23.42;;;24.90;69.50;;;;;;4619660;55;21092;-36
2023/06/12 15:45:59;;;;;;;24.90;21.95;;;24.90;69.50;;;;;;4614696;59;21153;-37
2023/06/12 15:51:00;;;;;;;29.85;24.55;;;24.80;69.40;;;;;;4663388;56;21053;-37
2023/06/12 15:56:01;;;;;;;26.75;22.95;;;24.80;69.40;;;;;;4770658;56;21021;-34
2023/06/12 16:01:02;;;;;;;25.30;22.70;;;24.90;69.50;;;;;;4686287;55;21496;-36
2023/06/12 16:06:03;;;;;;;27.85;23.08;;;24.90;69.50;;;;;;4626881;56;21116;-37
2023/06/12 16:11:04;;;;;;;27.37;23.05;;;24.80;69.40;;;;;;4691998;56;21052;-39
2023/06/12 16:16:05;;;;;;;25.58;22.40;;;24.80;69.40;;;;;;4990755;56;21040;-37
2023/06/12 16:21:09;;;;;;;28.30;24.02;;;24.80;69.40;;;;;;4618578;55;21044;-37
2023/06/12 16:26:10;;;;;;;26.45;22.27;;;24.80;69.40;;;;;;4652493;55;21555;-39
2023/06/12 16:31:11;;;;;;;26.87;23.85;;;24.80;69.40;;;;;;4662467;55;21113;-38
2023/06/12 16:36:12;;;;;;;27.37;23.40;;;24.80;69.40;;;;;;4614426;59;21101;-39
2023/06/12 16:41:13;;;;;;;25.37;22.67;;;24.80;69.40;;;;;;4671339;56;21162;-41
2023/06/12 16:46:16;;;;;;;24.83;21.98;;;24.80;69.40;;;;;;4631029;55;22382;-38
2023/06/12 16:51:23;;;;;;;24.48;21.55;;;24.80;69.40;;;;;;4614387;59;21633;-37
2023/06/12 16:56:23;;;;;;;;;;;24.80;69.40;;;;;;4773620;55;21499;-37
2023/06/12 17:01:24;;;;;;;26.80;23.02;;;24.80;69.40;;;;;;4682881;56;20079;-40
2023/06/12 17:06:25;;;;;;;25.98;21.70;;;24.80;69.40;;;;;;4672900;55;21013;-35
2023/06/12 17:11:26;;;;;;;25.80;22.52;;;24.80;69.30;;;;;;4615012;59;21045;-34
2023/06/12 17:16:27;;;;;;;25.83;22.55;;;24.80;69.40;;;;;;4615274;59;21649;-33
2023/06/12 17:21:28;;;;;;;25.27;22.08;;;24.80;69.30;;;;;;4692457;55;21849;-38
2023/06/12 17:26:29;;;;;;;24.95;22.25;;;24.80;69.30;;;;;;4616018;59;21664;-37
2023/06/12 17:31:30;;;;;;;25.15;22.17;;;24.80;69.30;;;;;;4795954;55;21128;-35
2023/06/12 17:36:31;;;;;;;24.33;21.73;;;24.80;69.30;;;;;;4678131;56;21036;-37
2023/06/12 17:41:32;;;;;;;24.77;22.05;;;24.80;69.30;;;;;;4661177;55;21542;-37
2023/06/12 17:46:33;;;;;;;25.48;21.42;;;24.80;69.20;;;;;;4632079;56;21607;-36
2023/06/12 17:51:34;;;;;;;28.50;22.15;;;24.80;69.50;;;;;;4647568;56;21631;-36
2023/06/12 17:56:35;;;;;;;25.73;21.92;;;24.80;69.30;;;;;;4814981;55;21025;-36
2023/06/12 18:01:35;;;;;;;24.65;22.02;;;24.80;69.20;;;;;;4615046;60;21339;-34
2023/06/12 18:06:37;;;;;;;24.60;21.52;;;24.80;69.20;;;;;;4615743;59;21559;-35
2023/06/12 18:11:37;;;;;;;25.08;22.37;;;24.80;69.20;;;;;;4638078;55;21953;-38
2023/06/12 18:16:41;;;;;;;24.67;21.70;;;24.80;69.20;;;;;;4615490;59;21437;-36
2023/06/12 18:21:43;;;;;;;24.60;21.77;;;24.80;69.20;;;;;;4615741;60;21496;-36
2023/06/12 18:26:44;;;;;;;24.23;21.12;;;24.80;69.20;;;;;;4662021;56;21583;-36
2023/06/12 18:31:45;;;;;;;23.98;20.85;;;24.80;69.20;;;;;;4615695;60;21089;-38
2023/06/12 18:36:46;;;;;;;25.00;21.10;;;24.80;69.10;;;;;;4618277;55;21064;-37
2023/06/12 18:41:47;;;;;;;24.77;21.60;;;24.80;69.70;;;;;;4705473;55;21045;-39
2023/06/12 18:46:48;;;;;;;22.77;20.37;;;24.80;69.10;;;;;;4615367;60;21072;-37
2023/06/12 18:51:49;;;;;;;25.08;22.00;;;24.80;69.20;;;;;;4615474;59;21037;-39
2023/06/12 18:56:50;;;;;;;24.30;21.70;;;24.80;68.60;;;;;;4657609;55;21086;-38
2023/06/12 19:01:51;;;;;;;24.30;20.95;;;24.80;69.10;;;;;;4650161;55;21069;-38
2023/06/12 19:06:52;;;;;;;23.60;21.12;;;24.80;69.20;;;;;;4615557;56;21468;-36
2023/06/12 19:11:53;;;;;;;23.73;21.23;;;24.80;69.10;;;;;;4704620;55;21623;-36
2023/06/12 19:16:54;;;;;;;23.70;20.12;;;24.80;69.10;;;;;;4673911;55;21076;-39
2023/06/12 19:21:55;;;;;;;21.92;19.75;;;24.80;69.10;;;;;;4665750;55;20997;-36
2023/06/12 19:26:59;;;;;;;21.92;19.60;;;24.80;69.10;;;;;;4615538;56;21013;-38
2023/06/12 19:32:06;;;;;;;23.45;20.70;;;24.80;69.10;;;;;;4641933;56;21446;-36
2023/06/12 19:37:07;;;;;;;22.33;19.92;;;24.70;69.10;;;;;;4621700;56;21515;-38
2023/06/12 19:42:10;;;;;;;22.77;20.23;;;24.80;69.10;;;;;;4615422;60;21061;-34
2023/06/12 19:47:13;;;;;;;22.20;19.90;;;24.70;69.10;;;;;;4667002;56;21105;-36
2023/06/12 19:52:15;;;;;;;21.45;19.25;;;24.80;69.20;;;;;;4657323;55;21052;-36
2023/06/12 19:57:16;;;;;;;23.00;20.37;;;24.80;69.20;;;;;;4637376;56;21047;-37
2023/06/12 20:02:17;;;;;;;20.75;18.55;;;24.80;69.20;;;;;;4615663;60;21950;-36
2023/06/12 20:07:20;;;;;;;21.52;19.15;;;24.70;69.10;;;;;;4641523;56;21371;-37
2023/06/12 20:12:21;;;;;;;22.37;19.98;;;24.80;69.20;;;;;;4615559;55;21001;-33
2023/06/12 20:17:22;;;;;;;21.23;18.73;;;24.80;69.20;;;;;;4643909;56;21073;-35
2023/06/12 20:22:24;;;;;;;21.12;18.87;;;24.80;69.20;;;;;;4681030;55;21518;-33
2023/06/12 20:27:26;;;;;;;20.58;18.37;;;24.70;69.10;;;;;;4717345;56;21630;-36
2023/06/12 20:32:31;;;;;;;21.37;19.02;;;24.70;69.20;;;;;;4656891;56;21052;-36
2023/06/12 20:37:32;;;;;;;20.23;18.05;;;24.70;69.20;;;;;;4765034;56;21596;-38
2023/06/12 20:42:33;;;;;;;20.37;18.10;;;24.70;69.10;;;;;;4615685;56;21037;-38
2023/06/12 20:47:34;;;;;;;20.12;18.02;;;24.70;69.20;;;;;;4631819;55;21033;-34
2023/06/12 20:52:35;;;;;;;21.05;18.85;;;24.70;69.20;;;;;;4620362;55;21024;-38
2023/06/12 20:57:35;;;;;;;21.30;18.98;;;24.70;69.20;;;;;;4898969;55;21001;-36
2023/06/12 21:02:38;;;;;;;20.77;18.10;;;24.70;69.20;;;;;;4777423;55;21013;-37
2023/06/12 21:07:41;;;;;;;19.75;17.75;;;24.70;69.10;;;;;;4693162;56;21475;-36
2023/06/12 21:12:42;;;;;;;19.90;17.80;;;24.70;69.50;;;;;;4883155;56;21024;-36
2023/06/12 21:17:46;;;;;;;19.70;17.60;;;24.70;69.20;;;;;;4615152;59;21013;-37
2023/06/12 21:22:47;;;;;;;21.70;19.40;;;24.70;69.20;;;;;;4624197;55;21025;-36
2023/06/12 21:27:48;;;;;;;19.87;17.77;;;24.70;69.20;;;;;;4615207;59;21462;-37
2023/06/12 21:32:50;;;;;;;21.30;17.10;;;24.70;69.20;;;;;;4618465;55;21021;-37
2023/06/12 21:37:51;;;;;;;20.83;17.83;;;24.70;69.20;;;;;;4754982;55;21560;-37
2023/06/12 21:42:52;;;;;;;19.23;17.23;;;24.70;69.20;;;;;;4614988;55;21105;-38
2023/06/12 21:47:55;;;;;;;19.10;17.20;;;24.70;69.20;;;;;;4622890;56;21571;-37
2023/06/12 21:52:57;;;;;;;19.40;17.40;;;24.70;69.20;;;;;;4633644;55;21543;-38
2023/06/12 21:57:58;;;;;;;18.70;16.70;;;24.70;69.20;;;;;;4644726;55;21643;-37
2023/06/12 22:02:59;;;;;;;19.52;17.45;;;24.70;69.20;;;;;;4792165;55;21520;-37
2023/06/12 22:08:01;;;;;;;20.10;18.02;;;24.70;69.20;;;;;;4630144;55;21097;-38
2023/06/12 22:13:02;;;;;;;20.42;17.62;;;24.70;69.20;;;;;;4659334;55;21698;-39
2023/06/12 22:18:07;;;;;;;17.67;15.88;;;24.70;69.20;;;;;;4615806;59;21085;-38
2023/06/12 22:23:08;;;;;;;18.67;16.77;;;24.70;69.20;;;;;;4658545;56;21045;-32
2023/06/12 22:28:09;;;;;;;18.77;16.77;;;24.70;69.20;;;;;;4626822;55;22039;-34
2023/06/12 22:33:10;;;;;;;17.95;16.05;;;24.70;69.20;;;;;;4714172;55;21053;-34
2023/06/12 22:38:11;;;;;;;18.65;16.75;;;24.70;69.20;;;;;;4615669;60;21504;-35
2023/06/12 22:43:14;;;;;;;18.95;17.05;;;24.70;69.20;;;;;;4810540;55;21527;-36
2023/06/12 22:48:17;;;;;;;18.87;16.90;;;24.70;69.20;;;;;;4615242;59;21722;-36
2023/06/12 22:53:19;;;;;;;17.83;16.02;;;24.70;69.20;;;;;;4615376;60;21551;-36
2023/06/12 22:58:20;;;;;;;18.60;16.60;;;24.70;69.20;;;;;;4615742;59;21554;-36
2023/06/12 23:03:21;;;;;;;17.95;16.12;;;24.70;69.30;;;;;;4615594;60;21499;-35
2023/06/12 23:08:27;;;;;;;17.35;15.55;;;24.70;69.20;;;;;;4688626;55;21101;-34
2023/06/12 23:13:28;;;;;;;17.73;15.93;;;24.70;69.30;;;;;;4616215;60;21580;-35
2023/06/12 23:18:33;;;;;;;17.70;15.80;;;24.70;69.30;;;;;;4682188;55;21081;-34
2023/06/12 23:23:34;;;;;;;18.65;16.77;;;24.70;69.30;;;;;;4652742;55;21521;-35
2023/06/12 23:28:36;;;;;;;17.10;15.30;;;24.70;69.30;;;;;;4636718;55;21037;-37
2023/06/12 23:33:36;;;;;;;18.55;16.75;;;24.70;69.30;;;;;;4749108;55;21528;-37
2023/06/12 23:38:37;;;;;;;18.42;16.62;;;24.70;69.30;;;;;;4651163;55;21104;-34
2023/06/12 23:43:38;;;;;;;17.98;16.08;;;24.70;69.30;;;;;;4630714;55;21204;-36
2023/06/12 23:48:39;;;;;;;16.30;14.70;;;24.70;69.30;;;;;;4615138;59;21096;-36
2023/06/12 23:53:40;;;;;;;18.58;16.75;;;24.70;69.30;;;;;;4637054;55;21531;-35
2023/06/12 23:58:41;;;;;;;17.02;15.30;;;24.70;69.30;;;;;;4775226;55;21021;-44
